Главная страница
METAR-TAF:

METAR-TAF

Аэропорты :

Трабзон, Турция

широта: 41-00N, долгота: 039-43E, высота над уровнем моря: 35 м

Текущие метеонаблюдения

Эта сводка был подготовлена 27 минут назад, в 17:20 UTC
Ветер 6 Узел от юго-юго-восточный
Температура 8°C
Влажность 71%
Давление 1023 hPa
Видимость 10 км и более
Нет облачности ниже 1500 м, и нет кучево-дождевой облачности

METAR: LTCG 281720Z 15006KT CAVOK 08/03 Q1023 NOSIG RMK RWY29 16006KT

Время: 20:47 (17:47 UTC)

Прогноз

Эта сводка был подготовлена 1 час и 7 минут назад, в 16:40 UTC
Прогноз действительный с 28-го 18 UTC до 29-го 18 UTC
Ветер 8 Узел от юго-юго-восточный
Видимость 10 км и более
Нет облачности ниже 1500 м, и нет кучево-дождевой облачности
изменения
С 29-го 05 UTC до 29-го 08 UTC
Ветер 12 Узел от восточный
изменения
С 29-го 10 UTC до 29-го 13 UTC
Ветер 2 Узел переменных направлений

TAF: LTCG 281640Z 2818/2918 16008KT CAVOK BECMG 2905/2908 09012KT BECMG 2910/2913 VRB02KT

Метеонаблюдения и прогнозы для более 4000 аэропортов (сводки METAR и TAF).

Имеющиеся станции представлены на карте желтыми и красными точками.

Чтобы увидеть название станции, наведите на нее мышь.

Затем щелкните, чтобы увидеть метеонаблюдения и метеопрогнозы.

Управление картой: чтобы увеличить масштаб, щелкните зеленые кнопки с черным крестиком; чтобы уменьшить масштаб, щелкните зеленую кнопку с тире; для просмотра соседних карт щелкайте зеленые стрелки.


METAR-TAF: